sensor_id;sensor_type;location;lat;lon;timestamp;P1;durP1;ratioP1;P2;durP2;ratioP2
6223;SDS011;3145;42.726;23.342;2023-06-22T00:01:15;12.27;;;11.27;;
6223;SDS011;3145;42.726;23.342;2023-06-22T00:03:42;11.27;;;10.37;;
6223;SDS011;3145;42.726;23.342;2023-06-22T00:06:09;12.13;;;10.93;;
6223;SDS011;3145;42.726;23.342;2023-06-22T00:08:35;11.93;;;10.93;;
6223;SDS011;3145;42.726;23.342;2023-06-22T00:11:02;12.83;;;11.33;;
6223;SDS011;3145;42.726;23.342;2023-06-22T00:13:30;15.67;;;11.87;;
6223;SDS011;3145;42.726;23.342;2023-06-22T00:15:57;11.83;;;10.83;;
6223;SDS011;3145;42.726;23.342;2023-06-22T00:18:24;12.07;;;10.97;;
6223;SDS011;3145;42.726;23.342;2023-06-22T00:20:53;11.70;;;10.60;;
6223;SDS011;3145;42.726;23.342;2023-06-22T00:23:23;12.23;;;11.10;;
6223;SDS011;3145;42.726;23.342;2023-06-22T00:25:50;12.13;;;11.00;;
6223;SDS011;3145;42.726;23.342;2023-06-22T00:28:17;12.80;;;11.27;;
6223;SDS011;3145;42.726;23.342;2023-06-22T00:30:45;11.67;;;10.60;;
6223;SDS011;3145;42.726;23.342;2023-06-22T00:33:12;12.33;;;11.17;;
6223;SDS011;3145;42.726;23.342;2023-06-22T00:35:41;12.27;;;11.00;;
6223;SDS011;3145;42.726;23.342;2023-06-22T00:38:07;11.67;;;10.37;;
6223;SDS011;3145;42.726;23.342;2023-06-22T00:40:34;11.33;;;10.13;;
6223;SDS011;3145;42.726;23.342;2023-06-22T00:43:01;12.23;;;10.93;;
6223;SDS011;3145;42.726;23.342;2023-06-22T00:45:28;12.13;;;11.00;;
6223;SDS011;3145;42.726;23.342;2023-06-22T00:47:57;12.87;;;11.00;;
6223;SDS011;3145;42.726;23.342;2023-06-22T00:50:25;13.43;;;12.13;;
6223;SDS011;3145;42.726;23.342;2023-06-22T00:52:53;14.87;;;13.10;;
6223;SDS011;3145;42.726;23.342;2023-06-22T00:55:23;13.60;;;12.20;;
6223;SDS011;3145;42.726;23.342;2023-06-22T00:57:51;19.83;;;13.40;;
6223;SDS011;3145;42.726;23.342;2023-06-22T01:00:21;16.47;;;13.43;;
6223;SDS011;3145;42.726;23.342;2023-06-22T01:02:50;14.83;;;13.23;;
6223;SDS011;3145;42.726;23.342;2023-06-22T01:05:18;14.60;;;13.10;;
6223;SDS011;3145;42.726;23.342;2023-06-22T01:07:49;14.93;;;12.93;;
6223;SDS011;3145;42.726;23.342;2023-06-22T01:10:27;15.50;;;12.30;;
6223;SDS011;3145;42.726;23.342;2023-06-22T01:13:01;14.67;;;12.10;;
6223;SDS011;3145;42.726;23.342;2023-06-22T01:15:33;13.57;;;12.23;;
6223;SDS011;3145;42.726;23.342;2023-06-22T01:18:04;12.90;;;11.57;;
6223;SDS011;3145;42.726;23.342;2023-06-22T01:20:35;15.97;;;12.20;;
6223;SDS011;3145;42.726;23.342;2023-06-22T01:23:07;15.57;;;11.87;;
6223;SDS011;3145;42.726;23.342;2023-06-22T01:25:43;14.00;;;12.60;;
6223;SDS011;3145;42.726;23.342;2023-06-22T01:28:18;13.43;;;12.13;;
6223;SDS011;3145;42.726;23.342;2023-06-22T01:30:52;14.33;;;12.97;;
6223;SDS011;3145;42.726;23.342;2023-06-22T01:33:28;13.43;;;12.07;;
6223;SDS011;3145;42.726;23.342;2023-06-22T01:35:57;15.90;;;11.80;;
6223;SDS011;3145;42.726;23.342;2023-06-22T01:38:25;14.43;;;12.93;;
6223;SDS011;3145;42.726;23.342;2023-06-22T01:40:54;14.63;;;12.03;;
6223;SDS011;3145;42.726;23.342;2023-06-22T01:43:21;12.87;;;11.57;;
6223;SDS011;3145;42.726;23.342;2023-06-22T01:45:52;13.53;;;12.10;;
6223;SDS011;3145;42.726;23.342;2023-06-22T01:48:20;12.43;;;11.33;;
6223;SDS011;3145;42.726;23.342;2023-06-22T01:50:48;12.77;;;11.43;;
6223;SDS011;3145;42.726;23.342;2023-06-22T01:53:15;14.47;;;11.53;;
6223;SDS011;3145;42.726;23.342;2023-06-22T01:55:42;11.67;;;10.63;;
6223;SDS011;3145;42.726;23.342;2023-06-22T01:58:08;12.03;;;10.90;;
6223;SDS011;3145;42.726;23.342;2023-06-22T02:00:36;12.20;;;11.10;;
6223;SDS011;3145;42.726;23.342;2023-06-22T02:03:08;11.93;;;10.73;;
6223;SDS011;3145;42.726;23.342;2023-06-22T02:05:39;12.07;;;10.87;;
6223;SDS011;3145;42.726;23.342;2023-06-22T02:08:13;12.40;;;11.20;;
6223;SDS011;3145;42.726;23.342;2023-06-22T02:10:44;12.40;;;10.93;;
6223;SDS011;3145;42.726;23.342;2023-06-22T02:13:12;12.40;;;11.10;;
6223;SDS011;3145;42.726;23.342;2023-06-22T02:15:40;13.57;;;10.57;;
6223;SDS011;3145;42.726;23.342;2023-06-22T02:18:09;12.57;;;11.37;;
6223;SDS011;3145;42.726;23.342;2023-06-22T02:20:36;12.43;;;11.20;;
6223;SDS011;3145;42.726;23.342;2023-06-22T02:23:04;12.47;;;11.47;;
6223;SDS011;3145;42.726;23.342;2023-06-22T02:25:31;11.60;;;10.53;;
6223;SDS011;3145;42.726;23.342;2023-06-22T02:27:58;12.20;;;10.90;;
6223;SDS011;3145;42.726;23.342;2023-06-22T02:30:25;12.50;;;11.20;;
6223;SDS011;3145;42.726;23.342;2023-06-22T02:32:52;11.50;;;10.27;;
6223;SDS011;3145;42.726;23.342;2023-06-22T02:35:25;11.93;;;10.87;;
6223;SDS011;3145;42.726;23.342;2023-06-22T02:37:56;12.33;;;11.10;;
6223;SDS011;3145;42.726;23.342;2023-06-22T02:40:23;12.27;;;11.07;;
6223;SDS011;3145;42.726;23.342;2023-06-22T02:42:50;14.33;;;11.13;;
6223;SDS011;3145;42.726;23.342;2023-06-22T02:45:16;13.23;;;12.03;;
6223;SDS011;3145;42.726;23.342;2023-06-22T02:47:43;11.43;;;10.47;;
6223;SDS011;3145;42.726;23.342;2023-06-22T02:50:10;13.83;;;11.27;;
6223;SDS011;3145;42.726;23.342;2023-06-22T02:52:38;13.40;;;11.80;;
6223;SDS011;3145;42.726;23.342;2023-06-22T02:55:05;18.03;;;12.73;;
6223;SDS011;3145;42.726;23.342;2023-06-22T02:57:33;13.57;;;11.90;;
6223;SDS011;3145;42.726;23.342;2023-06-22T03:00:01;13.37;;;12.00;;
6223;SDS011;3145;42.726;23.342;2023-06-22T03:02:31;12.93;;;11.73;;
6223;SDS011;3145;42.726;23.342;2023-06-22T03:04:58;16.47;;;11.97;;
6223;SDS011;3145;42.726;23.342;2023-06-22T03:07:26;12.80;;;11.50;;
6223;SDS011;3145;42.726;23.342;2023-06-22T03:09:56;17.67;;;11.57;;
6223;SDS011;3145;42.726;23.342;2023-06-22T03:12:23;13.47;;;11.80;;
6223;SDS011;3145;42.726;23.342;2023-06-22T03:14:50;12.37;;;11.23;;
6223;SDS011;3145;42.726;23.342;2023-06-22T03:17:17;20.57;;;11.97;;
6223;SDS011;3145;42.726;23.342;2023-06-22T03:19:44;13.17;;;11.80;;
6223;SDS011;3145;42.726;23.342;2023-06-22T03:22:11;14.20;;;11.80;;
6223;SDS011;3145;42.726;23.342;2023-06-22T03:24:39;12.87;;;11.50;;
6223;SDS011;3145;42.726;23.342;2023-06-22T03:27:07;12.03;;;10.83;;
6223;SDS011;3145;42.726;23.342;2023-06-22T03:29:33;12.90;;;11.60;;
6223;SDS011;3145;42.726;23.342;2023-06-22T03:32:00;13.10;;;11.70;;
6223;SDS011;3145;42.726;23.342;2023-06-22T03:34:27;13.17;;;11.73;;
6223;SDS011;3145;42.726;23.342;2023-06-22T03:36:54;12.97;;;11.47;;
6223;SDS011;3145;42.726;23.342;2023-06-22T03:39:20;14.50;;;11.60;;
6223;SDS011;3145;42.726;23.342;2023-06-22T03:41:47;12.93;;;11.37;;
6223;SDS011;3145;42.726;23.342;2023-06-22T03:44:15;12.57;;;11.37;;
6223;SDS011;3145;42.726;23.342;2023-06-22T03:46:42;12.70;;;11.30;;
6223;SDS011;3145;42.726;23.342;2023-06-22T03:49:08;12.83;;;10.00;;
6223;SDS011;3145;42.726;23.342;2023-06-22T03:51:35;12.50;;;11.20;;
6223;SDS011;3145;42.726;23.342;2023-06-22T03:54:02;13.77;;;10.57;;
6223;SDS011;3145;42.726;23.342;2023-06-22T03:56:28;10.83;;;9.93;;
6223;SDS011;3145;42.726;23.342;2023-06-22T03:58:55;13.27;;;9.73;;
6223;SDS011;3145;42.726;23.342;2023-06-22T04:01:23;11.13;;;10.03;;
6223;SDS011;3145;42.726;23.342;2023-06-22T04:03:50;11.23;;;10.13;;
6223;SDS011;3145;42.726;23.342;2023-06-22T04:06:17;16.30;;;10.30;;
6223;SDS011;3145;42.726;23.342;2023-06-22T04:08:44;12.00;;;9.87;;
6223;SDS011;3145;42.726;23.342;2023-06-22T04:11:15;13.13;;;10.47;;
6223;SDS011;3145;42.726;23.342;2023-06-22T04:13:42;12.07;;;10.87;;
6223;SDS011;3145;42.726;23.342;2023-06-22T04:16:09;13.97;;;10.83;;
6223;SDS011;3145;42.726;23.342;2023-06-22T04:18:37;12.20;;;11.10;;
6223;SDS011;3145;42.726;23.342;2023-06-22T04:21:04;15.60;;;11.33;;
6223;SDS011;3145;42.726;23.342;2023-06-22T04:23:31;13.10;;;11.90;;
6223;SDS011;3145;42.726;23.342;2023-06-22T04:25:58;18.03;;;12.70;;
6223;SDS011;3145;42.726;23.342;2023-06-22T04:28:25;15.10;;;12.53;;
6223;SDS011;3145;42.726;23.342;2023-06-22T04:30:52;20.30;;;14.43;;
6223;SDS011;3145;42.726;23.342;2023-06-22T04:33:23;15.20;;;12.17;;
6223;SDS011;3145;42.726;23.342;2023-06-22T04:35:51;15.47;;;12.47;;
6223;SDS011;3145;42.726;23.342;2023-06-22T04:38:18;18.00;;;13.30;;
6223;SDS011;3145;42.726;23.342;2023-06-22T04:40:46;17.67;;;13.97;;
6223;SDS011;3145;42.726;23.342;2023-06-22T04:43:13;14.33;;;11.63;;
6223;SDS011;3145;42.726;23.342;2023-06-22T04:45:40;14.90;;;11.77;;
6223;SDS011;3145;42.726;23.342;2023-06-22T04:48:06;11.40;;;10.37;;
6223;SDS011;3145;42.726;23.342;2023-06-22T04:50:34;12.15;;;10.95;;
6223;SDS011;3145;42.726;23.342;2023-06-22T04:53:04;12.07;;;10.30;;
6223;SDS011;3145;42.726;23.342;2023-06-22T04:55:31;14.10;;;11.10;;
6223;SDS011;3145;42.726;23.342;2023-06-22T04:57:58;16.13;;;10.27;;
6223;SDS011;3145;42.726;23.342;2023-06-22T05:00:29;11.43;;;10.38;;
6223;SDS011;3145;42.726;23.342;2023-06-22T05:02:57;16.08;;;11.05;;
6223;SDS011;3145;42.726;23.342;2023-06-22T05:05:24;12.15;;;10.73;;
6223;SDS011;3145;42.726;23.342;2023-06-22T05:07:52;17.48;;;11.73;;
6223;SDS011;3145;42.726;23.342;2023-06-22T05:10:21;17.02;;;10.52;;
6223;SDS011;3145;42.726;23.342;2023-06-22T05:12:48;13.85;;;12.38;;
6223;SDS011;3145;42.726;23.342;2023-06-22T05:15:14;12.50;;;11.27;;
6223;SDS011;3145;42.726;23.342;2023-06-22T05:17:41;14.88;;;12.18;;
6223;SDS011;3145;42.726;23.342;2023-06-22T05:20:09;12.18;;;10.85;;
6223;SDS011;3145;42.726;23.342;2023-06-22T05:22:36;11.90;;;10.30;;
6223;SDS011;3145;42.726;23.342;2023-06-22T05:25:03;14.50;;;10.32;;
6223;SDS011;3145;42.726;23.342;2023-06-22T05:27:32;11.32;;;10.20;;
6223;SDS011;3145;42.726;23.342;2023-06-22T05:29:59;19.35;;;11.52;;
6223;SDS011;3145;42.726;23.342;2023-06-22T05:32:26;12.73;;;10.45;;
6223;SDS011;3145;42.726;23.342;2023-06-22T05:34:52;12.25;;;10.10;;
6223;SDS011;3145;42.726;23.342;2023-06-22T05:37:19;12.00;;;10.57;;
6223;SDS011;3145;42.726;23.342;2023-06-22T05:39:46;16.75;;;11.65;;
6223;SDS011;3145;42.726;23.342;2023-06-22T05:42:13;14.60;;;11.55;;
6223;SDS011;3145;42.726;23.342;2023-06-22T05:44:41;12.73;;;11.48;;
6223;SDS011;3145;42.726;23.342;2023-06-22T05:47:08;11.43;;;10.20;;
6223;SDS011;3145;42.726;23.342;2023-06-22T05:49:34;16.40;;;11.70;;
6223;SDS011;3145;42.726;23.342;2023-06-22T05:52:01;11.95;;;10.82;;
6223;SDS011;3145;42.726;23.342;2023-06-22T05:54:28;12.18;;;10.90;;
6223;SDS011;3145;42.726;23.342;2023-06-22T05:56:55;12.75;;;11.45;;
6223;SDS011;3145;42.726;23.342;2023-06-22T05:59:22;12.05;;;10.85;;
6223;SDS011;3145;42.726;23.342;2023-06-22T06:01:50;13.13;;;10.73;;
6223;SDS011;3145;42.726;23.342;2023-06-22T06:04:17;13.15;;;11.23;;
6223;SDS011;3145;42.726;23.342;2023-06-22T06:06:43;12.32;;;10.95;;
6223;SDS011;3145;42.726;23.342;2023-06-22T06:09:12;13.40;;;10.75;;
6223;SDS011;3145;42.726;23.342;2023-06-22T06:11:38;12.32;;;11.13;;
6223;SDS011;3145;42.726;23.342;2023-06-22T06:14:05;10.95;;;9.88;;
6223;SDS011;3145;42.726;23.342;2023-06-22T06:16:32;13.80;;;9.90;;
6223;SDS011;3145;42.726;23.342;2023-06-22T06:19:00;11.15;;;10.05;;
6223;SDS011;3145;42.726;23.342;2023-06-22T06:21:27;11.15;;;10.00;;
6223;SDS011;3145;42.726;23.342;2023-06-22T06:23:53;9.75;;;8.85;;
6223;SDS011;3145;42.726;23.342;2023-06-22T06:26:20;11.95;;;10.48;;
6223;SDS011;3145;42.726;23.342;2023-06-22T06:28:55;9.60;;;8.63;;
6223;SDS011;3145;42.726;23.342;2023-06-22T06:31:22;11.77;;;9.48;;
6223;SDS011;3145;42.726;23.342;2023-06-22T06:33:48;10.23;;;9.32;;
6223;SDS011;3145;42.726;23.342;2023-06-22T06:36:17;13.73;;;10.07;;
6223;SDS011;3145;42.726;23.342;2023-06-22T06:38:43;12.93;;;9.88;;
6223;SDS011;3145;42.726;23.342;2023-06-22T06:41:12;10.43;;;9.43;;
6223;SDS011;3145;42.726;23.342;2023-06-22T06:43:38;10.20;;;9.35;;
6223;SDS011;3145;42.726;23.342;2023-06-22T06:46:05;10.48;;;9.48;;
6223;SDS011;3145;42.726;23.342;2023-06-22T06:48:32;10.90;;;9.55;;
6223;SDS011;3145;42.726;23.342;2023-06-22T06:50:58;16.70;;;13.18;;
6223;SDS011;3145;42.726;23.342;2023-06-22T06:53:26;17.10;;;12.82;;
6223;SDS011;3145;42.726;23.342;2023-06-22T06:55:53;15.27;;;11.43;;
6223;SDS011;3145;42.726;23.342;2023-06-22T06:58:20;13.85;;;12.30;;
6223;SDS011;3145;42.726;23.342;2023-06-22T07:00:48;17.77;;;13.43;;
6223;SDS011;3145;42.726;23.342;2023-06-22T07:03:14;19.30;;;14.70;;
6223;SDS011;3145;42.726;23.342;2023-06-22T07:05:41;23.20;;;14.38;;
6223;SDS011;3145;42.726;23.342;2023-06-22T07:08:08;20.38;;;14.52;;
6223;SDS011;3145;42.726;23.342;2023-06-22T07:10:36;18.27;;;14.95;;
6223;SDS011;3145;42.726;23.342;2023-06-22T07:13:03;21.92;;;14.07;;
6223;SDS011;3145;42.726;23.342;2023-06-22T07:15:30;16.23;;;14.23;;
6223;SDS011;3145;42.726;23.342;2023-06-22T07:17:56;16.38;;;13.35;;
6223;SDS011;3145;42.726;23.342;2023-06-22T07:20:23;21.63;;;12.93;;
6223;SDS011;3145;42.726;23.342;2023-06-22T07:22:51;15.88;;;12.45;;
6223;SDS011;3145;42.726;23.342;2023-06-22T07:25:17;16.65;;;12.05;;
6223;SDS011;3145;42.726;23.342;2023-06-22T07:27:46;14.57;;;13.07;;
6223;SDS011;3145;42.726;23.342;2023-06-22T07:30:22;19.40;;;12.32;;
6223;SDS011;3145;42.726;23.342;2023-06-22T07:32:49;17.35;;;12.07;;
6223;SDS011;3145;42.726;23.342;2023-06-22T07:35:16;15.77;;;12.75;;
6223;SDS011;3145;42.726;23.342;2023-06-22T07:37:43;15.77;;;12.50;;
6223;SDS011;3145;42.726;23.342;2023-06-22T07:40:10;14.27;;;12.25;;
6223;SDS011;3145;42.726;23.342;2023-06-22T07:42:37;16.40;;;13.00;;
6223;SDS011;3145;42.726;23.342;2023-06-22T07:45:06;14.55;;;13.07;;
6223;SDS011;3145;42.726;23.342;2023-06-22T07:47:33;19.63;;;13.98;;
6223;SDS011;3145;42.726;23.342;2023-06-22T07:50:01;15.13;;;13.10;;
6223;SDS011;3145;42.726;23.342;2023-06-22T07:52:29;13.90;;;12.05;;
6223;SDS011;3145;42.726;23.342;2023-06-22T07:54:55;12.93;;;11.40;;
6223;SDS011;3145;42.726;23.342;2023-06-22T07:57:22;14.43;;;12.20;;
6223;SDS011;3145;42.726;23.342;2023-06-22T07:59:57;23.23;;;13.68;;
6223;SDS011;3145;42.726;23.342;2023-06-22T08:02:25;18.55;;;12.18;;
6223;SDS011;3145;42.726;23.342;2023-06-22T08:04:52;14.75;;;12.70;;
6223;SDS011;3145;42.726;23.342;2023-06-22T08:07:19;19.92;;;13.15;;
6223;SDS011;3145;42.726;23.342;2023-06-22T08:09:46;13.75;;;11.90;;
6223;SDS011;3145;42.726;23.342;2023-06-22T08:12:14;18.42;;;11.90;;
6223;SDS011;3145;42.726;23.342;2023-06-22T08:14:41;28.58;;;12.52;;
6223;SDS011;3145;42.726;23.342;2023-06-22T08:17:09;12.95;;;11.75;;
6223;SDS011;3145;42.726;23.342;2023-06-22T08:19:38;19.88;;;16.02;;
6223;SDS011;3145;42.726;23.342;2023-06-22T08:22:05;20.00;;;12.95;;
6223;SDS011;3145;42.726;23.342;2023-06-22T08:24:32;15.30;;;11.90;;
6223;SDS011;3145;42.726;23.342;2023-06-22T08:26:58;16.52;;;11.93;;
6223;SDS011;3145;42.726;23.342;2023-06-22T08:29:25;15.38;;;13.63;;
6223;SDS011;3145;42.726;23.342;2023-06-22T08:31:52;19.23;;;13.63;;
6223;SDS011;3145;42.726;23.342;2023-06-22T08:34:18;22.67;;;15.00;;
6223;SDS011;3145;42.726;23.342;2023-06-22T08:36:49;14.35;;;12.23;;
6223;SDS011;3145;42.726;23.342;2023-06-22T08:39:17;16.48;;;11.88;;
6223;SDS011;3145;42.726;23.342;2023-06-22T08:41:44;14.80;;;11.23;;
6223;SDS011;3145;42.726;23.342;2023-06-22T08:44:11;15.27;;;10.82;;
6223;SDS011;3145;42.726;23.342;2023-06-22T08:46:37;15.85;;;11.40;;
6223;SDS011;3145;42.726;23.342;2023-06-22T08:49:05;15.40;;;11.45;;
6223;SDS011;3145;42.726;23.342;2023-06-22T08:51:33;16.35;;;11.35;;
6223;SDS011;3145;42.726;23.342;2023-06-22T08:54:01;11.13;;;9.95;;
6223;SDS011;3145;42.726;23.342;2023-06-22T08:56:28;13.63;;;10.20;;
6223;SDS011;3145;42.726;23.342;2023-06-22T08:58:54;12.30;;;10.98;;
6223;SDS011;3145;42.726;23.342;2023-06-22T09:01:21;16.80;;;11.10;;
6223;SDS011;3145;42.726;23.342;2023-06-22T09:03:48;12.40;;;11.18;;
6223;SDS011;3145;42.726;23.342;2023-06-22T09:06:19;12.63;;;10.43;;
6223;SDS011;3145;42.726;23.342;2023-06-22T09:08:46;13.57;;;11.82;;
6223;SDS011;3145;42.726;23.342;2023-06-22T09:11:14;14.43;;;11.10;;
6223;SDS011;3145;42.726;23.342;2023-06-22T09:13:41;14.15;;;11.10;;
6223;SDS011;3145;42.726;23.342;2023-06-22T09:16:07;13.55;;;11.15;;
6223;SDS011;3145;42.726;23.342;2023-06-22T09:18:34;11.88;;;10.75;;
6223;SDS011;3145;42.726;23.342;2023-06-22T09:21:01;12.85;;;10.82;;
6223;SDS011;3145;42.726;23.342;2023-06-22T09:23:28;11.40;;;10.25;;
6223;SDS011;3145;42.726;23.342;2023-06-22T09:26:17;11.52;;;10.52;;
6223;SDS011;3145;42.726;23.342;2023-06-22T09:28:44;10.90;;;9.95;;
6223;SDS011;3145;42.726;23.342;2023-06-22T09:31:47;14.23;;;11.40;;
6223;SDS011;3145;42.726;23.342;2023-06-22T09:34:14;16.27;;;11.13;;
6223;SDS011;3145;42.726;23.342;2023-06-22T09:36:40;12.23;;;11.05;;
6223;SDS011;3145;42.726;23.342;2023-06-22T09:39:07;12.05;;;10.57;;
6223;SDS011;3145;42.726;23.342;2023-06-22T09:41:35;13.27;;;10.15;;
6223;SDS011;3145;42.726;23.342;2023-06-22T09:44:02;10.77;;;9.48;;
6223;SDS011;3145;42.726;23.342;2023-06-22T09:46:29;12.07;;;10.73;;
6223;SDS011;3145;42.726;23.342;2023-06-22T09:48:56;10.63;;;9.80;;
6223;SDS011;3145;42.726;23.342;2023-06-22T09:51:22;9.55;;;8.73;;
6223;SDS011;3145;42.726;23.342;2023-06-22T09:53:49;9.80;;;8.82;;
6223;SDS011;3145;42.726;23.342;2023-06-22T09:56:16;11.05;;;9.38;;
6223;SDS011;3145;42.726;23.342;2023-06-22T09:58:45;10.18;;;9.18;;
6223;SDS011;3145;42.726;23.342;2023-06-22T10:01:15;10.40;;;9.48;;
6223;SDS011;3145;42.726;23.342;2023-06-22T10:03:50;10.52;;;9.38;;
6223;SDS011;3145;42.726;23.342;2023-06-22T10:06:24;12.15;;;10.35;;
6223;SDS011;3145;42.726;23.342;2023-06-22T10:08:51;10.70;;;10.00;;
6223;SDS011;3145;42.726;23.342;2023-06-22T10:11:18;11.20;;;10.15;;
6223;SDS011;3145;42.726;23.342;2023-06-22T10:13:46;10.05;;;8.93;;
6223;SDS011;3145;42.726;23.342;2023-06-22T10:16:12;10.25;;;9.25;;
6223;SDS011;3145;42.726;23.342;2023-06-22T10:18:39;11.55;;;10.38;;
6223;SDS011;3145;42.726;23.342;2023-06-22T10:21:06;10.27;;;9.32;;
6223;SDS011;3145;42.726;23.342;2023-06-22T10:23:32;10.93;;;9.65;;
6223;SDS011;3145;42.726;23.342;2023-06-22T10:25:59;9.35;;;8.65;;
6223;SDS011;3145;42.726;23.342;2023-06-22T10:28:26;9.80;;;8.38;;
6223;SDS011;3145;42.726;23.342;2023-06-22T10:30:54;9.65;;;8.77;;
6223;SDS011;3145;42.726;23.342;2023-06-22T10:33:21;9.48;;;8.68;;
6223;SDS011;3145;42.726;23.342;2023-06-22T10:35:47;10.13;;;8.18;;
6223;SDS011;3145;42.726;23.342;2023-06-22T10:38:14;9.38;;;8.35;;
6223;SDS011;3145;42.726;23.342;2023-06-22T10:40:41;9.05;;;8.45;;
6223;SDS011;3145;42.726;23.342;2023-06-22T10:43:08;8.20;;;7.70;;
6223;SDS011;3145;42.726;23.342;2023-06-22T10:45:34;10.05;;;7.90;;
6223;SDS011;3145;42.726;23.342;2023-06-22T10:48:03;10.13;;;9.32;;
6223;SDS011;3145;42.726;23.342;2023-06-22T10:50:30;9.02;;;8.35;;
6223;SDS011;3145;42.726;23.342;2023-06-22T10:52:57;8.13;;;7.43;;
6223;SDS011;3145;42.726;23.342;2023-06-22T10:55:24;8.80;;;8.10;;
6223;SDS011;3145;42.726;23.342;2023-06-22T10:57:51;8.48;;;7.78;;
6223;SDS011;3145;42.726;23.342;2023-06-22T11:00:17;9.02;;;8.18;;
6223;SDS011;3145;42.726;23.342;2023-06-22T11:02:44;8.30;;;7.50;;
6223;SDS011;3145;42.726;23.342;2023-06-22T11:05:12;8.73;;;8.10;;
6223;SDS011;3145;42.726;23.342;2023-06-22T11:07:41;8.43;;;7.90;;
6223;SDS011;3145;42.726;23.342;2023-06-22T11:10:08;8.02;;;7.45;;
6223;SDS011;3145;42.726;23.342;2023-06-22T11:12:35;8.77;;;8.15;;
6223;SDS011;3145;42.726;23.342;2023-06-22T11:15:02;7.93;;;7.40;;
6223;SDS011;3145;42.726;23.342;2023-06-22T11:17:29;8.15;;;7.65;;
6223;SDS011;3145;42.726;23.342;2023-06-22T11:19:56;8.48;;;7.97;;
6223;SDS011;3145;42.726;23.342;2023-06-22T11:22:25;8.95;;;8.27;;
6223;SDS011;3145;42.726;23.342;2023-06-22T11:24:52;8.35;;;7.75;;
6223;SDS011;3145;42.726;23.342;2023-06-22T11:27:18;8.27;;;7.55;;
6223;SDS011;3145;42.726;23.342;2023-06-22T11:29:45;8.75;;;7.88;;
6223;SDS011;3145;42.726;23.342;2023-06-22T11:32:12;8.85;;;8.00;;
6223;SDS011;3145;42.726;23.342;2023-06-22T11:34:39;9.18;;;8.30;;
6223;SDS011;3145;42.726;23.342;2023-06-22T11:37:06;9.35;;;8.68;;
6223;SDS011;3145;42.726;23.342;2023-06-22T11:39:34;9.52;;;8.50;;
6223;SDS011;3145;42.726;23.342;2023-06-22T11:42:01;9.52;;;8.55;;
6223;SDS011;3145;42.726;23.342;2023-06-22T11:44:27;8.93;;;8.32;;
6223;SDS011;3145;42.726;23.342;2023-06-22T11:46:54;8.57;;;7.93;;
6223;SDS011;3145;42.726;23.342;2023-06-22T11:49:21;8.70;;;7.93;;
6223;SDS011;3145;42.726;23.342;2023-06-22T11:51:48;8.10;;;7.60;;
6223;SDS011;3145;42.726;23.342;2023-06-22T11:54:14;7.95;;;7.28;;
6223;SDS011;3145;42.726;23.342;2023-06-22T11:56:43;8.38;;;7.63;;
6223;SDS011;3145;42.726;23.342;2023-06-22T11:59:09;8.55;;;7.95;;
6223;SDS011;3145;42.726;23.342;2023-06-22T12:01:36;8.82;;;7.55;;
6223;SDS011;3145;42.726;23.342;2023-06-22T12:04:03;8.40;;;7.38;;
6223;SDS011;3145;42.726;23.342;2023-06-22T12:06:30;8.45;;;7.65;;
6223;SDS011;3145;42.726;23.342;2023-06-22T12:08:57;9.02;;;7.53;;
6223;SDS011;3145;42.726;23.342;2023-06-22T12:11:24;8.20;;;7.47;;
6223;SDS011;3145;42.726;23.342;2023-06-22T12:13:52;8.35;;;7.75;;
6223;SDS011;3145;42.726;23.342;2023-06-22T12:16:19;8.77;;;8.07;;
6223;SDS011;3145;42.726;23.342;2023-06-22T12:18:46;8.77;;;7.93;;
6223;SDS011;3145;42.726;23.342;2023-06-22T12:21:13;9.25;;;8.35;;
6223;SDS011;3145;42.726;23.342;2023-06-22T12:23:40;16.60;;;8.85;;
6223;SDS011;3145;42.726;23.342;2023-06-22T12:26:07;11.65;;;8.25;;
6223;SDS011;3145;42.726;23.342;2023-06-22T12:28:34;10.70;;;9.48;;
6223;SDS011;3145;42.726;23.342;2023-06-22T12:31:02;10.52;;;9.52;;
6223;SDS011;3145;42.726;23.342;2023-06-22T12:33:28;17.65;;;10.35;;
6223;SDS011;3145;42.726;23.342;2023-06-22T12:35:55;15.07;;;9.65;;
6223;SDS011;3145;42.726;23.342;2023-06-22T12:38:22;8.73;;;7.50;;
6223;SDS011;3145;42.726;23.342;2023-06-22T12:40:50;10.07;;;7.45;;
6223;SDS011;3145;42.726;23.342;2023-06-22T12:43:17;10.10;;;7.07;;
6223;SDS011;3145;42.726;23.342;2023-06-22T12:45:44;7.97;;;7.28;;
6223;SDS011;3145;42.726;23.342;2023-06-22T12:48:12;11.32;;;7.05;;
6223;SDS011;3145;42.726;23.342;2023-06-22T12:50:39;9.35;;;7.28;;
6223;SDS011;3145;42.726;23.342;2023-06-22T12:53:05;7.65;;;6.78;;
6223;SDS011;3145;42.726;23.342;2023-06-22T12:55:32;12.75;;;7.05;;
6223;SDS011;3145;42.726;23.342;2023-06-22T12:57:59;11.07;;;7.03;;
6223;SDS011;3145;42.726;23.342;2023-06-22T13:00:26;13.13;;;7.88;;
6223;SDS011;3145;42.726;23.342;2023-06-22T13:02:52;9.52;;;8.27;;
6223;SDS011;3145;42.726;23.342;2023-06-22T13:05:20;15.65;;;7.38;;
6223;SDS011;3145;42.726;23.342;2023-06-22T13:07:47;9.60;;;7.55;;
6223;SDS011;3145;42.726;23.342;2023-06-22T13:10:14;7.30;;;6.60;;
6223;SDS011;3145;42.726;23.342;2023-06-22T13:12:41;8.60;;;6.68;;
6223;SDS011;3145;42.726;23.342;2023-06-22T13:15:07;8.30;;;6.65;;
6223;SDS011;3145;42.726;23.342;2023-06-22T13:17:34;10.38;;;7.00;;
6223;SDS011;3145;42.726;23.342;2023-06-22T13:20:01;10.63;;;7.22;;
6223;SDS011;3145;42.726;23.342;2023-06-22T13:22:31;8.38;;;6.82;;
6223;SDS011;3145;42.726;23.342;2023-06-22T13:25:04;16.27;;;7.15;;
6223;SDS011;3145;42.726;23.342;2023-06-22T13:27:32;10.80;;;7.50;;
6223;SDS011;3145;42.726;23.342;2023-06-22T13:29:59;12.57;;;7.15;;
6223;SDS011;3145;42.726;23.342;2023-06-22T13:32:25;7.88;;;7.15;;
6223;SDS011;3145;42.726;23.342;2023-06-22T13:34:52;9.50;;;6.85;;
6223;SDS011;3145;42.726;23.342;2023-06-22T13:37:19;7.25;;;6.45;;
6223;SDS011;3145;42.726;23.342;2023-06-22T13:39:47;8.60;;;7.68;;
6223;SDS011;3145;42.726;23.342;2023-06-22T13:42:14;9.27;;;8.40;;
6223;SDS011;3145;42.726;23.342;2023-06-22T13:44:41;11.40;;;9.55;;
6223;SDS011;3145;42.726;23.342;2023-06-22T13:47:08;8.95;;;8.02;;
6223;SDS011;3145;42.726;23.342;2023-06-22T13:49:34;10.88;;;8.65;;
6223;SDS011;3145;42.726;23.342;2023-06-22T13:52:01;14.38;;;9.57;;
6223;SDS011;3145;42.726;23.342;2023-06-22T13:54:28;11.05;;;8.50;;
6223;SDS011;3145;42.726;23.342;2023-06-22T13:56:56;14.85;;;9.10;;
6223;SDS011;3145;42.726;23.342;2023-06-22T13:59:23;10.27;;;9.13;;
6223;SDS011;3145;42.726;23.342;2023-06-22T14:01:51;14.63;;;8.07;;
6223;SDS011;3145;42.726;23.342;2023-06-22T14:04:18;15.32;;;7.55;;
6223;SDS011;3145;42.726;23.342;2023-06-22T14:06:44;12.10;;;7.45;;
6223;SDS011;3145;42.726;23.342;2023-06-22T14:09:11;8.30;;;7.57;;
6223;SDS011;3145;42.726;23.342;2023-06-22T14:11:38;12.80;;;7.55;;
6223;SDS011;3145;42.726;23.342;2023-06-22T14:14:06;13.05;;;7.82;;
6223;SDS011;3145;42.726;23.342;2023-06-22T14:16:32;18.40;;;8.65;;
6223;SDS011;3145;42.726;23.342;2023-06-22T14:18:59;16.15;;;9.27;;
6223;SDS011;3145;42.726;23.342;2023-06-22T14:21:26;11.40;;;8.85;;
6223;SDS011;3145;42.726;23.342;2023-06-22T14:23:52;10.10;;;8.65;;
6223;SDS011;3145;42.726;23.342;2023-06-22T14:26:19;15.10;;;8.77;;
6223;SDS011;3145;42.726;23.342;2023-06-22T14:28:48;14.93;;;8.70;;
6223;SDS011;3145;42.726;23.342;2023-06-22T14:31:17;14.20;;;7.75;;
6223;SDS011;3145;42.726;23.342;2023-06-22T14:33:45;13.02;;;8.30;;
6223;SDS011;3145;42.726;23.342;2023-06-22T14:36:12;12.05;;;8.48;;
6223;SDS011;3145;42.726;23.342;2023-06-22T14:38:39;15.68;;;8.48;;
6223;SDS011;3145;42.726;23.342;2023-06-22T14:41:06;10.98;;;9.07;;
6223;SDS011;3145;42.726;23.342;2023-06-22T14:43:33;10.43;;;7.90;;